sensor_id;sensor_type;location;lat;lon;timestamp;pressure;altitude;pressure_sealevel;temperature;humidity
57572;BME280;44459;43.522;24.470;2022-08-03T00:01:01;100083.25;;;21.80;59.49
57572;BME280;44459;43.522;24.470;2022-08-03T00:03:26;100078.34;;;21.69;60.22
57572;BME280;44459;43.522;24.470;2022-08-03T00:05:52;100080.38;;;21.63;60.64
57572;BME280;44459;43.522;24.470;2022-08-03T00:08:17;100078.44;;;21.66;60.25
57572;BME280;44459;43.522;24.470;2022-08-03T00:10:42;100071.34;;;21.65;60.40
57572;BME280;44459;43.522;24.470;2022-08-03T00:13:08;100073.06;;;21.66;60.72
57572;BME280;44459;43.522;24.470;2022-08-03T00:15:33;100075.72;;;21.68;61.18
57572;BME280;44459;43.522;24.470;2022-08-03T00:17:59;100082.00;;;21.67;61.35
57572;BME280;44459;43.522;24.470;2022-08-03T00:20:24;100075.75;;;21.66;61.04
57572;BME280;44459;43.522;24.470;2022-08-03T00:22:50;100077.50;;;21.67;61.84
57572;BME280;44459;43.522;24.470;2022-08-03T00:25:15;100073.06;;;21.66;61.92
57572;BME280;44459;43.522;24.470;2022-08-03T00:27:40;100074.81;;;21.67;61.60
57572;BME280;44459;43.522;24.470;2022-08-03T00:30:06;100078.41;;;21.68;62.89
57572;BME280;44459;43.522;24.470;2022-08-03T00:32:31;100088.13;;;21.70;62.69
57572;BME280;44459;43.522;24.470;2022-08-03T00:34:56;100087.16;;;21.73;63.17
57572;BME280;44459;43.522;24.470;2022-08-03T00:37:22;100087.19;;;21.71;62.54
57572;BME280;44459;43.522;24.470;2022-08-03T00:39:47;100073.78;;;21.71;62.04
57572;BME280;44459;43.522;24.470;2022-08-03T00:42:12;100081.78;;;21.73;62.11
57572;BME280;44459;43.522;24.470;2022-08-03T00:44:39;100077.16;;;21.76;61.97
57572;BME280;44459;43.522;24.470;2022-08-03T00:47:05;100074.38;;;21.78;61.96
57572;BME280;44459;43.522;24.470;2022-08-03T00:49:30;100067.13;;;21.80;61.54
57572;BME280;44459;43.522;24.470;2022-08-03T00:52:14;100066.13;;;21.82;61.68
57572;BME280;44459;43.522;24.470;2022-08-03T00:54:40;100068.69;;;21.85;61.57
57572;BME280;44459;43.522;24.470;2022-08-03T00:57:06;100066.88;;;21.86;61.53
57572;BME280;44459;43.522;24.470;2022-08-03T00:59:32;100071.38;;;21.85;60.78
57572;BME280;44459;43.522;24.470;2022-08-03T01:01:57;100073.94;;;21.88;61.36
57572;BME280;44459;43.522;24.470;2022-08-03T01:04:23;100070.31;;;21.89;61.31
57572;BME280;44459;43.522;24.470;2022-08-03T01:06:49;100073.81;;;21.91;61.36
57572;BME280;44459;43.522;24.470;2022-08-03T01:09:25;100072.06;;;21.90;60.79
57572;BME280;44459;43.522;24.470;2022-08-03T01:14:23;100077.41;;;21.92;60.81
57572;BME280;44459;43.522;24.470;2022-08-03T01:24:54;100073.91;;;21.90;60.55
57572;BME280;44459;43.522;24.470;2022-08-03T01:27:18;100074.72;;;21.92;60.61
57572;BME280;44459;43.522;24.470;2022-08-03T01:34:56;100088.16;;;21.92;61.98
57572;BME280;44459;43.522;24.470;2022-08-03T01:37:57;100078.28;;;21.92;62.22
57572;BME280;44459;43.522;24.470;2022-08-03T01:40:15;100083.66;;;21.92;61.78
57572;BME280;44459;43.522;24.470;2022-08-03T01:42:41;100082.63;;;21.95;61.78
57572;BME280;44459;43.522;24.470;2022-08-03T01:45:09;100075.44;;;21.95;61.40
57572;BME280;44459;43.522;24.470;2022-08-03T01:47:35;100086.06;;;21.98;62.09
57572;BME280;44459;43.522;24.470;2022-08-03T01:50:02;100090.50;;;21.99;62.22
57572;BME280;44459;43.522;24.470;2022-08-03T01:52:28;100086.91;;;22.00;61.80
57572;BME280;44459;43.522;24.470;2022-08-03T01:54:55;100088.72;;;22.00;61.99
57572;BME280;44459;43.522;24.470;2022-08-03T01:57:20;100083.31;;;22.00;62.13
57572;BME280;44459;43.522;24.470;2022-08-03T01:59:46;100086.94;;;21.99;62.44
57572;BME280;44459;43.522;24.470;2022-08-03T02:02:13;100082.50;;;21.98;62.35
57572;BME280;44459;43.522;24.470;2022-08-03T02:04:40;100089.63;;;21.99;62.74
57572;BME280;44459;43.522;24.470;2022-08-03T02:07:06;100085.13;;;21.99;62.82
57572;BME280;44459;43.522;24.470;2022-08-03T02:09:33;100095.00;;;21.99;62.94
57572;BME280;44459;43.522;24.470;2022-08-03T02:12:01;100099.50;;;21.98;62.82
57572;BME280;44459;43.522;24.470;2022-08-03T02:14:26;100100.53;;;21.96;62.58
57572;BME280;44459;43.522;24.470;2022-08-03T02:16:52;100102.38;;;21.94;62.39
57572;BME280;44459;43.522;24.470;2022-08-03T02:19:18;100093.47;;;21.93;61.40
57572;BME280;44459;43.522;24.470;2022-08-03T02:21:44;100099.81;;;21.91;61.58
57572;BME280;44459;43.522;24.470;2022-08-03T02:24:10;100100.72;;;21.91;61.82
57572;BME280;44459;43.522;24.470;2022-08-03T02:26:35;100103.41;;;21.91;62.12
57572;BME280;44459;43.522;24.470;2022-08-03T02:29:05;100101.63;;;21.90;61.22
57572;BME280;44459;43.522;24.470;2022-08-03T02:31:32;100107.94;;;21.89;62.01
57572;BME280;44459;43.522;24.470;2022-08-03T02:34:00;100112.38;;;21.90;62.84
57572;BME280;44459;43.522;24.470;2022-08-03T02:36:27;100109.75;;;21.89;63.36
57572;BME280;44459;43.522;24.470;2022-08-03T02:38:53;100113.31;;;21.89;63.35
57572;BME280;44459;43.522;24.470;2022-08-03T02:41:21;100111.59;;;21.87;63.26
57572;BME280;44459;43.522;24.470;2022-08-03T02:43:48;100107.25;;;21.84;63.52
57572;BME280;44459;43.522;24.470;2022-08-03T02:46:17;100105.56;;;21.82;63.91
57572;BME280;44459;43.522;24.470;2022-08-03T02:48:43;100107.44;;;21.80;63.69
57572;BME280;44459;43.522;24.470;2022-08-03T02:51:10;100104.88;;;21.77;62.26
57572;BME280;44459;43.522;24.470;2022-08-03T02:53:36;100105.84;;;21.76;62.60
57572;BME280;44459;43.522;24.470;2022-08-03T02:56:02;100112.19;;;21.73;63.25
57572;BME280;44459;43.522;24.470;2022-08-03T02:58:29;100113.16;;;21.72;63.39
57572;BME280;44459;43.522;24.470;2022-08-03T03:00:55;100112.31;;;21.70;64.02
57572;BME280;44459;43.522;24.470;2022-08-03T03:03:21;100114.13;;;21.70;64.16
57572;BME280;44459;43.522;24.470;2022-08-03T03:05:47;100113.28;;;21.69;64.39
57572;BME280;44459;43.522;24.470;2022-08-03T03:08:14;100115.09;;;21.69;64.36
57572;BME280;44459;43.522;24.470;2022-08-03T03:10:40;100108.00;;;21.66;64.03
57572;BME280;44459;43.522;24.470;2022-08-03T03:13:05;100118.75;;;21.66;64.05
57572;BME280;44459;43.522;24.470;2022-08-03T03:15:31;100115.25;;;21.64;63.88
57572;BME280;44459;43.522;24.470;2022-08-03T03:18:00;100120.63;;;21.64;64.91
57572;BME280;44459;43.522;24.470;2022-08-03T03:20:25;100116.19;;;21.63;64.83
57572;BME280;44459;43.522;24.470;2022-08-03T03:22:52;100118.88;;;21.63;65.14
57572;BME280;44459;43.522;24.470;2022-08-03T03:25:18;100118.88;;;21.63;64.88
57572;BME280;44459;43.522;24.470;2022-08-03T03:27:45;100128.75;;;21.63;65.03
57572;BME280;44459;43.522;24.470;2022-08-03T03:30:11;100123.50;;;21.59;64.83
57572;BME280;44459;43.522;24.470;2022-08-03T03:32:36;100132.53;;;21.58;65.03
57572;BME280;44459;43.522;24.470;2022-08-03T03:35:04;100135.38;;;21.54;64.88
57572;BME280;44459;43.522;24.470;2022-08-03T03:37:29;100141.69;;;21.53;64.30
57572;BME280;44459;43.522;24.470;2022-08-03T03:39:55;100144.31;;;21.54;65.20
57572;BME280;44459;43.522;24.470;2022-08-03T03:42:20;100144.19;;;21.57;65.87
57572;BME280;44459;43.522;24.470;2022-08-03T03:44:46;100137.91;;;21.58;65.34
57572;BME280;44459;43.522;24.470;2022-08-03T03:47:11;100144.13;;;21.59;65.12
57572;BME280;44459;43.522;24.470;2022-08-03T03:49:37;100137.75;;;21.62;64.89
57572;BME280;44459;43.522;24.470;2022-08-03T03:52:03;100141.19;;;21.65;65.36
57572;BME280;44459;43.522;24.470;2022-08-03T03:54:38;100144.66;;;21.69;64.60
57572;BME280;44459;43.522;24.470;2022-08-03T03:57:03;100146.28;;;21.73;64.52
57572;BME280;44459;43.522;24.470;2022-08-03T03:59:29;100151.38;;;21.79;64.68
57572;BME280;44459;43.522;24.470;2022-08-03T04:01:54;100151.19;;;21.83;63.51
57572;BME280;44459;43.522;24.470;2022-08-03T04:04:19;100154.56;;;21.88;62.78
57572;BME280;44459;43.522;24.470;2022-08-03T04:07:03;100155.41;;;21.90;63.98
57572;BME280;44459;43.522;24.470;2022-08-03T04:09:47;100159.78;;;21.93;64.22
57572;BME280;44459;43.522;24.470;2022-08-03T04:12:31;100153.41;;;21.95;63.95
57572;BME280;44459;43.522;24.470;2022-08-03T04:14:57;100157.72;;;21.99;63.73
57572;BME280;44459;43.522;24.470;2022-08-03T04:17:24;100157.59;;;22.02;63.25
57572;BME280;44459;43.522;24.470;2022-08-03T04:19:51;100151.91;;;22.10;63.81
57572;BME280;44459;43.522;24.470;2022-08-03T04:22:18;100156.00;;;22.19;63.06
57572;BME280;44459;43.522;24.470;2022-08-03T04:24:47;100166.25;;;22.31;63.28
57572;BME280;44459;43.522;24.470;2022-08-03T04:27:14;100161.28;;;22.42;62.20
57572;BME280;44459;43.522;24.470;2022-08-03T04:29:41;100166.31;;;22.49;62.23
57572;BME280;44459;43.522;24.470;2022-08-03T04:32:08;100165.19;;;22.55;61.67
57572;BME280;44459;43.522;24.470;2022-08-03T04:34:34;100181.03;;;22.61;60.73
57572;BME280;44459;43.522;24.470;2022-08-03T04:37:02;100166.53;;;22.65;60.66
57572;BME280;44459;43.522;24.470;2022-08-03T04:39:30;100171.84;;;22.67;61.97
57572;BME280;44459;43.522;24.470;2022-08-03T04:42:02;100171.31;;;22.79;60.24
57572;BME280;44459;43.522;24.470;2022-08-03T04:44:29;100170.88;;;22.88;59.94
57572;BME280;44459;43.522;24.470;2022-08-03T04:46:55;100171.72;;;22.90;60.07
57572;BME280;44459;43.522;24.470;2022-08-03T04:49:20;100177.50;;;23.01;59.59
57572;BME280;44459;43.522;24.470;2022-08-03T04:51:47;100181.66;;;23.08;59.31
57572;BME280;44459;43.522;24.470;2022-08-03T04:54:13;100181.38;;;23.14;58.69
57572;BME280;44459;43.522;24.470;2022-08-03T04:56:39;100181.66;;;23.27;59.73
57572;BME280;44459;43.522;24.470;2022-08-03T04:59:04;100183.69;;;23.42;60.53
57572;BME280;44459;43.522;24.470;2022-08-03T05:01:30;100190.03;;;23.60;60.82
57572;BME280;44459;43.522;24.470;2022-08-03T05:03:55;100186.66;;;23.73;61.08
57572;BME280;44459;43.522;24.470;2022-08-03T05:06:20;100183.34;;;23.85;60.88
57572;BME280;44459;43.522;24.470;2022-08-03T05:08:45;100191.56;;;24.01;60.33
57572;BME280;44459;43.522;24.470;2022-08-03T05:11:11;100186.47;;;24.14;60.72
57572;BME280;44459;43.522;24.470;2022-08-03T05:13:36;100192.19;;;24.25;60.74
57572;BME280;44459;43.522;24.470;2022-08-03T05:16:01;100183.31;;;24.40;57.51
57572;BME280;44459;43.522;24.470;2022-08-03T05:18:27;100193.47;;;24.52;58.37
57572;BME280;44459;43.522;24.470;2022-08-03T05:20:52;100198.09;;;24.67;58.94
57572;BME280;44459;43.522;24.470;2022-08-03T05:23:17;100198.19;;;24.83;58.14
57572;BME280;44459;43.522;24.470;2022-08-03T05:25:43;100206.34;;;24.98;57.59
57572;BME280;44459;43.522;24.470;2022-08-03T05:28:08;100206.56;;;25.11;57.85
57572;BME280;44459;43.522;24.470;2022-08-03T05:30:33;100205.81;;;25.25;56.86
57572;BME280;44459;43.522;24.470;2022-08-03T05:32:58;100208.97;;;25.33;54.35
57572;BME280;44459;43.522;24.470;2022-08-03T05:35:24;100203.69;;;25.47;55.72
57572;BME280;44459;43.522;24.470;2022-08-03T05:37:50;100211.81;;;25.63;55.82
57572;BME280;44459;43.522;24.470;2022-08-03T05:40:15;100214.56;;;25.78;54.61
57572;BME280;44459;43.522;24.470;2022-08-03T05:42:41;100224.59;;;25.92;55.03
57572;BME280;44459;43.522;24.470;2022-08-03T05:45:06;100215.84;;;26.02;54.66
57572;BME280;44459;43.522;24.470;2022-08-03T05:47:44;100219.44;;;26.19;53.95
57572;BME280;44459;43.522;24.470;2022-08-03T05:50:10;100235.69;;;26.34;53.65
57572;BME280;44459;43.522;24.470;2022-08-03T12:56:01;100070.44;;;33.56;28.91
57572;BME280;44459;43.522;24.470;2022-08-03T12:58:32;100070.38;;;33.77;28.71
57572;BME280;44459;43.522;24.470;2022-08-03T13:00:58;100067.03;;;33.83;28.10
57572;BME280;44459;43.522;24.470;2022-08-03T13:03:23;100063.31;;;33.94;27.06
57572;BME280;44459;43.522;24.470;2022-08-03T13:05:49;100065.47;;;34.09;28.66
57572;BME280;44459;43.522;24.470;2022-08-03T13:08:18;100060.28;;;33.87;26.98
57572;BME280;44459;43.522;24.470;2022-08-03T13:10:44;100060.28;;;33.97;27.92
57572;BME280;44459;43.522;24.470;2022-08-03T13:13:10;100062.28;;;34.33;31.19
57572;BME280;44459;43.522;24.470;2022-08-03T13:15:36;100056.06;;;34.69;30.09
57572;BME280;44459;43.522;24.470;2022-08-03T13:18:01;100057.38;;;35.12;28.35
57572;BME280;44459;43.522;24.470;2022-08-03T13:20:27;100056.50;;;34.74;26.02
57572;BME280;44459;43.522;24.470;2022-08-03T13:22:52;100062.25;;;35.18;26.87
57572;BME280;44459;43.522;24.470;2022-08-03T13:25:18;100055.41;;;34.95;25.54
57572;BME280;44459;43.522;24.470;2022-08-03T13:27:45;100052.47;;;34.50;27.38
57572;BME280;44459;43.522;24.470;2022-08-03T13:30:11;100051.09;;;34.82;26.28
57572;BME280;44459;43.522;24.470;2022-08-03T13:32:37;100043.47;;;34.57;25.81
57572;BME280;44459;43.522;24.470;2022-08-03T13:35:03;100050.31;;;34.44;27.20
57572;BME280;44459;43.522;24.470;2022-08-03T13:37:29;100043.97;;;34.43;26.46
57572;BME280;44459;43.522;24.470;2022-08-03T13:39:56;100046.72;;;34.43;26.93
57572;BME280;44459;43.522;24.470;2022-08-03T13:42:22;100050.75;;;34.01;27.11
57572;BME280;44459;43.522;24.470;2022-08-03T13:44:47;100047.50;;;33.57;26.38
57572;BME280;44459;43.522;24.470;2022-08-03T13:47:13;100042.38;;;33.83;25.89
57572;BME280;44459;43.522;24.470;2022-08-03T13:49:38;100049.19;;;33.98;26.88
57572;BME280;44459;43.522;24.470;2022-08-03T13:52:04;100044.25;;;33.92;26.51
57572;BME280;44459;43.522;24.470;2022-08-03T13:54:29;100036.91;;;33.73;25.53
57572;BME280;44459;43.522;24.470;2022-08-03T13:56:55;100038.19;;;33.69;26.32
57572;BME280;44459;43.522;24.470;2022-08-03T13:59:21;100038.41;;;33.57;26.07
57572;BME280;44459;43.522;24.470;2022-08-03T14:01:47;100036.66;;;33.36;25.79
57572;BME280;44459;43.522;24.470;2022-08-03T14:04:13;100031.75;;;33.30;25.42
57572;BME280;44459;43.522;24.470;2022-08-03T14:06:39;100032.63;;;33.40;27.02
57572;BME280;44459;43.522;24.470;2022-08-03T14:09:04;100026.28;;;33.30;25.87
57572;BME280;44459;43.522;24.470;2022-08-03T14:11:30;100024.63;;;33.77;25.64
57572;BME280;44459;43.522;24.470;2022-08-03T14:13:55;100026.38;;;34.07;27.95
57572;BME280;44459;43.522;24.470;2022-08-03T14:16:21;100020.75;;;34.28;26.60
57572;BME280;44459;43.522;24.470;2022-08-03T14:18:46;100019.97;;;34.55;28.13
57572;BME280;44459;43.522;24.470;2022-08-03T14:21:12;100013.88;;;34.61;29.00
57572;BME280;44459;43.522;24.470;2022-08-03T14:23:38;100018.25;;;34.54;26.60
57572;BME280;44459;43.522;24.470;2022-08-03T14:26:07;100015.69;;;34.33;24.64
57572;BME280;44459;43.522;24.470;2022-08-03T14:28:33;100024.94;;;34.13;24.75
57572;BME280;44459;43.522;24.470;2022-08-03T14:31:00;100011.97;;;33.76;25.51
57572;BME280;44459;43.522;24.470;2022-08-03T14:33:25;100024.31;;;33.52;25.78
57572;BME280;44459;43.522;24.470;2022-08-03T14:35:53;100018.75;;;33.13;25.49
57572;BME280;44459;43.522;24.470;2022-08-03T14:38:19;100019.78;;;32.61;26.73
57572;BME280;44459;43.522;24.470;2022-08-03T14:40:45;100016.06;;;32.62;27.15
57572;BME280;44459;43.522;24.470;2022-08-03T14:43:11;100013.31;;;32.62;27.63
57572;BME280;44459;43.522;24.470;2022-08-03T14:45:38;100023.66;;;32.59;27.38
57572;BME280;44459;43.522;24.470;2022-08-03T14:48:04;100018.78;;;32.62;27.55
57572;BME280;44459;43.522;24.470;2022-08-03T14:50:29;100019.66;;;32.63;28.78
57572;BME280;44459;43.522;24.470;2022-08-03T14:52:55;100019.22;;;32.47;27.86
57572;BME280;44459;43.522;24.470;2022-08-03T14:55:20;100013.59;;;32.59;28.93
57572;BME280;44459;43.522;24.470;2022-08-03T14:57:46;100015.91;;;32.64;28.27
57572;BME280;44459;43.522;24.470;2022-08-03T15:00:12;100013.31;;;32.62;27.67
57572;BME280;44459;43.522;24.470;2022-08-03T15:02:38;100014.84;;;32.55;27.33
57572;BME280;44459;43.522;24.470;2022-08-03T15:05:03;100014.63;;;32.47;28.23
57572;BME280;44459;43.522;24.470;2022-08-03T15:07:29;100013.72;;;32.37;27.30
57572;BME280;44459;43.522;24.470;2022-08-03T15:09:54;100012.84;;;32.36;30.41
57572;BME280;44459;43.522;24.470;2022-08-03T15:12:20;100009.56;;;32.42;30.11
57572;BME280;44459;43.522;24.470;2022-08-03T15:14:45;100016.41;;;32.27;29.09
57572;BME280;44459;43.522;24.470;2022-08-03T15:17:11;100013.66;;;32.27;28.22
57572;BME280;44459;43.522;24.470;2022-08-03T15:19:37;100004.44;;;32.28;27.78
57572;BME280;44459;43.522;24.470;2022-08-03T15:22:03;100009.91;;;32.28;28.50
57572;BME280;44459;43.522;24.470;2022-08-03T15:24:29;100007.84;;;32.41;27.56
57572;BME280;44459;43.522;24.470;2022-08-03T15:26:54;100006.31;;;32.49;30.00
57572;BME280;44459;43.522;24.470;2022-08-03T15:29:20;100009.44;;;32.44;28.23
57572;BME280;44459;43.522;24.470;2022-08-03T15:31:46;100003.06;;;32.34;28.38
57572;BME280;44459;43.522;24.470;2022-08-03T15:34:11;100004.94;;;32.13;28.11
57572;BME280;44459;43.522;24.470;2022-08-03T15:36:37;100004.59;;;32.06;29.03
57572;BME280;44459;43.522;24.470;2022-08-03T15:39:03;99999.75;;;31.99;28.94
57572;BME280;44459;43.522;24.470;2022-08-03T15:41:29;100002.22;;;32.02;28.25
57572;BME280;44459;43.522;24.470;2022-08-03T15:43:54;99988.16;;;32.17;28.79
57572;BME280;44459;43.522;24.470;2022-08-03T15:46:20;99996.00;;;32.31;27.23
57572;BME280;44459;43.522;24.470;2022-08-03T15:48:45;100003.31;;;32.31;29.22
57572;BME280;44459;43.522;24.470;2022-08-03T15:51:11;99995.31;;;32.39;27.63
57572;BME280;44459;43.522;24.470;2022-08-03T15:53:37;99988.13;;;32.38;28.15
57572;BME280;44459;43.522;24.470;2022-08-03T15:56:03;99994.31;;;32.40;29.16
57572;BME280;44459;43.522;24.470;2022-08-03T15:58:29;99990.25;;;32.34;27.81
57572;BME280;44459;43.522;24.470;2022-08-03T16:00:58;99977.94;;;32.19;28.14
57572;BME280;44459;43.522;24.470;2022-08-03T16:03:25;99986.84;;;32.21;27.69
57572;BME280;44459;43.522;24.470;2022-08-03T16:05:52;99976.47;;;32.15;28.57
57572;BME280;44459;43.522;24.470;2022-08-03T16:08:18;99999.91;;;32.18;27.72
57572;BME280;44459;43.522;24.470;2022-08-03T16:10:45;99992.53;;;32.09;28.67
57572;BME280;44459;43.522;24.470;2022-08-03T16:13:10;99995.34;;;31.86;26.74
57572;BME280;44459;43.522;24.470;2022-08-03T16:15:36;99991.88;;;31.84;27.49
57572;BME280;44459;43.522;24.470;2022-08-03T16:18:03;99995.09;;;31.89;27.86
57572;BME280;44459;43.522;24.470;2022-08-03T16:20:29;99995.34;;;31.86;27.73
57572;BME280;44459;43.522;24.470;2022-08-03T16:22:54;99991.59;;;31.87;27.67
57572;BME280;44459;43.522;24.470;2022-08-03T16:25:20;99992.16;;;31.81;27.69
57572;BME280;44459;43.522;24.470;2022-08-03T16:27:45;99997.72;;;31.80;27.68
57572;BME280;44459;43.522;24.470;2022-08-03T16:30:13;100000.34;;;31.81;26.89
57572;BME280;44459;43.522;24.470;2022-08-03T16:32:41;100001.31;;;31.80;27.65
57572;BME280;44459;43.522;24.470;2022-08-03T16:35:07;99989.00;;;31.65;27.71
57572;BME280;44459;43.522;24.470;2022-08-03T16:37:32;99995.44;;;31.64;27.36
57572;BME280;44459;43.522;24.470;2022-08-03T16:39:58;100007.88;;;31.57;28.61
57572;BME280;44459;43.522;24.470;2022-08-03T16:42:23;99997.94;;;31.45;30.93
57572;BME280;44459;43.522;24.470;2022-08-03T16:44:49;99999.00;;;31.33;32.10
57572;BME280;44459;43.522;24.470;2022-08-03T16:47:14;99995.28;;;31.23;31.89
57572;BME280;44459;43.522;24.470;2022-08-03T16:49:40;99994.34;;;31.13;31.35
57572;BME280;44459;43.522;24.470;2022-08-03T16:52:05;100003.13;;;31.05;33.22
57572;BME280;44459;43.522;24.470;2022-08-03T16:54:31;99997.53;;;30.95;32.75
57572;BME280;44459;43.522;24.470;2022-08-03T16:56:56;100000.03;;;30.87;30.95
57572;BME280;44459;43.522;24.470;2022-08-03T16:59:22;100015.50;;;30.76;32.60
57572;BME280;44459;43.522;24.470;2022-08-03T17:01:47;100008.94;;;30.67;33.79
57572;BME280;44459;43.522;24.470;2022-08-03T17:04:13;100002.50;;;30.57;35.44
57572;BME280;44459;43.522;24.470;2022-08-03T17:06:40;100011.53;;;30.47;36.02
57572;BME280;44459;43.522;24.470;2022-08-03T17:09:08;100013.59;;;30.32;36.41
57572;BME280;44459;43.522;24.470;2022-08-03T17:11:34;100013.56;;;30.21;35.87
57572;BME280;44459;43.522;24.470;2022-08-03T17:13:59;100013.66;;;30.08;35.87
57572;BME280;44459;43.522;24.470;2022-08-03T17:16:25;100018.31;;;29.95;36.96
57572;BME280;44459;43.522;24.470;2022-08-03T17:18:54;100022.91;;;29.82;36.03
57572;BME280;44459;43.522;24.470;2022-08-03T17:21:28;100016.53;;;29.59;37.68
57572;BME280;44459;43.522;24.470;2022-08-03T17:24:09;100012.75;;;29.49;37.75
57572;BME280;44459;43.522;24.470;2022-08-03T17:26:44;100014.91;;;29.33;38.49
57572;BME280;44459;43.522;24.470;2022-08-03T17:29:11;100020.25;;;29.22;38.55
57572;BME280;44459;43.522;24.470;2022-08-03T17:31:37;100018.88;;;29.04;38.27
57572;BME280;44459;43.522;24.470;2022-08-03T17:34:03;100021.50;;;28.92;38.44
57572;BME280;44459;43.522;24.470;2022-08-03T17:36:29;100028.72;;;28.81;38.79
57572;BME280;44459;43.522;24.470;2022-08-03T17:38:55;100024.88;;;28.71;39.33
57572;BME280;44459;43.522;24.470;2022-08-03T17:41:21;100024.66;;;28.61;40.93
57572;BME280;44459;43.522;24.470;2022-08-03T17:43:48;100023.56;;;28.51;41.39
57572;BME280;44459;43.522;24.470;2022-08-03T17:46:17;100031.84;;;28.37;40.82
57572;BME280;44459;43.522;24.470;2022-08-03T17:48:43;100031.06;;;28.22;39.69
57572;BME280;44459;43.522;24.470;2022-08-03T17:51:27;100028.34;;;28.10;39.58
57572;BME280;44459;43.522;24.470;2022-08-03T17:54:15;100031.97;;;27.96;40.06
57572;BME280;44459;43.522;24.470;2022-08-03T17:57:08;100041.34;;;27.78;41.05
57572;BME280;44459;43.522;24.470;2022-08-03T18:00:05;100037.75;;;27.65;41.72
57572;BME280;44459;43.522;24.470;2022-08-03T18:08:27;100042.16;;;27.25;43.00
57572;BME280;44459;43.522;24.470;2022-08-03T18:11:08;100047.44;;;27.14;42.71
57572;BME280;44459;43.522;24.470;2022-08-03T18:16:10;100046.69;;;26.97;44.43
57572;BME280;44459;43.522;24.470;2022-08-03T18:18:43;100058.88;;;26.90;43.60
57572;BME280;44459;43.522;24.470;2022-08-03T18:21:10;100058.50;;;26.82;44.45
57572;BME280;44459;43.522;24.470;2022-08-03T18:23:37;100062.75;;;26.72;44.91
57572;BME280;44459;43.522;24.470;2022-08-03T18:26:12;100059.72;;;26.63;45.38
57572;BME280;44459;43.522;24.470;2022-08-03T18:28:39;100060.31;;;26.53;44.77
57572;BME280;44459;43.522;24.470;2022-08-03T18:31:05;100064.28;;;26.48;46.30
57572;BME280;44459;43.522;24.470;2022-08-03T18:33:38;100066.78;;;26.37;45.71
57572;BME280;44459;43.522;24.470;2022-08-03T18:36:07;100065.59;;;26.27;46.13
57572;BME280;44459;43.522;24.470;2022-08-03T18:38:35;100065.34;;;26.16;46.94
57572;BME280;44459;43.522;24.470;2022-08-03T18:41:03;100067.44;;;26.11;46.91
57572;BME280;44459;43.522;24.470;2022-08-03T18:43:31;100074.28;;;26.02;46.70
57572;BME280;44459;43.522;24.470;2022-08-03T18:45:58;100067.88;;;25.89;47.13
57572;BME280;44459;43.522;24.470;2022-08-03T18:48:45;100076.63;;;25.78;46.53
57572;BME280;44459;43.522;24.470;2022-08-03T18:51:16;100085.44;;;25.66;46.30
57572;BME280;44459;43.522;24.470;2022-08-03T18:58:59;100076.19;;;25.39;48.33
57572;BME280;44459;43.522;24.470;2022-08-03T19:01:37;100089.25;;;25.31;48.25
57572;BME280;44459;43.522;24.470;2022-08-03T19:04:12;100090.72;;;25.21;48.53
57572;BME280;44459;43.522;24.470;2022-08-03T19:06:42;100089.31;;;25.14;49.19
57572;BME280;44459;43.522;24.470;2022-08-03T19:09:25;100096.19;;;25.03;48.99
57572;BME280;44459;43.522;24.470;2022-08-03T19:11:53;100096.63;;;24.96;49.68
57572;BME280;44459;43.522;24.470;2022-08-03T19:14:33;100096.56;;;24.80;48.77
57572;BME280;44459;43.522;24.470;2022-08-03T19:17:07;100102.22;;;24.76;49.45
57572;BME280;44459;43.522;24.470;2022-08-03T19:19:33;100110.66;;;24.70;50.19
57572;BME280;44459;43.522;24.470;2022-08-03T19:22:02;100112.00;;;24.61;51.01
57572;BME280;44459;43.522;24.470;2022-08-03T19:24:30;100109.63;;;24.55;50.88
57572;BME280;44459;43.522;24.470;2022-08-03T19:26:56;100113.53;;;24.49;51.51
57572;BME280;44459;43.522;24.470;2022-08-03T19:29:23;100111.25;;;24.42;51.42
57572;BME280;44459;43.522;24.470;2022-08-03T19:31:50;100111.56;;;24.36;51.48
57572;BME280;44459;43.522;24.470;2022-08-03T19:34:17;100108.44;;;24.26;50.15
57572;BME280;44459;43.522;24.470;2022-08-03T19:36:43;100107.13;;;24.18;49.88
57572;BME280;44459;43.522;24.470;2022-08-03T19:39:09;100109.03;;;24.16;49.58
57572;BME280;44459;43.522;24.470;2022-08-03T19:41:39;100104.72;;;24.12;50.08
57572;BME280;44459;43.522;24.470;2022-08-03T19:44:09;100102.31;;;24.05;50.29
57572;BME280;44459;43.522;24.470;2022-08-03T19:47:00;100101.59;;;24.02;51.45
57572;BME280;44459;43.522;24.470;2022-08-03T19:49:32;100106.44;;;23.95;52.11
57572;BME280;44459;43.522;24.470;2022-08-03T19:52:00;100102.94;;;23.93;52.67
57572;BME280;44459;43.522;24.470;2022-08-03T19:54:27;100107.84;;;23.85;53.44
57572;BME280;44459;43.522;24.470;2022-08-03T19:57:01;100103.66;;;23.80;52.51
57572;BME280;44459;43.522;24.470;2022-08-03T19:59:27;100106.50;;;23.77;52.93
57572;BME280;44459;43.522;24.470;2022-08-03T20:01:53;100111.06;;;23.75;53.27
57572;BME280;44459;43.522;24.470;2022-08-03T20:04:19;100104.34;;;23.66;52.35
57572;BME280;44459;43.522;24.470;2022-08-03T20:06:45;100108.91;;;23.64;53.01
57572;BME280;44459;43.522;24.470;2022-08-03T20:09:12;100106.47;;;23.60;53.29
57572;BME280;44459;43.522;24.470;2022-08-03T20:11:38;100100.41;;;23.54;53.31
57572;BME280;44459;43.522;24.470;2022-08-03T20:14:04;100111.41;;;23.50;53.69